Dades meteomassalio
Diari Summary for Noviembre 26, 2017 Units:  Metric    English   Both
« Previous Day
Next Day »
Diari Semanal Mensual Anual Personalitzat
  Maxima: Minima: Mijana:
Temperatura: 12.8 °C 1.1 °C 7.6 °C
Rosada: 2.7 °C -3.2 °C 0.8 °C
Humitat: 74 % 47 % 62 %
Velocitat del vent: 44.4 km/h 5.6 km/h 24.8 km/h
Racha vent: 44.4 km/h - -
Vent:- - WNW
Pressio: 1034.1 hPa 1028.3 hPa -
Pluja: 0.0 mm    
Historical Graphs
 
 
Tabular Data for Noviembre 26, 2017
Time Temperature Dew Point Pressure Wind Wind Speed Wind Gust Humidity Rainfall Rate (Hourly) solar Conditions
00:02 7.8 °C 0.3 °C 1028.3 hPa NNW 42.6 km/h 42.6 km/h 59 % 0.0 mm 0.0 W/m2 CLR
00:07 7.8 °C 0.3 °C 1028.3 hPa NW 31.5 km/h 31.5 km/h 59 % 0.0 mm 0.0 W/m2 CLR
00:12 7.8 °C 0.3 °C 1028.3 hPa NW 33.3 km/h 33.3 km/h 59 % 0.0 mm 0.0 W/m2 CLR
00:17 7.8 °C 0.0 °C 1028.3 hPa NW 38.9 km/h 38.9 km/h 58 % 0.0 mm 0.0 W/m2 CLR
00:22 7.2 °C -0.5 °C 1028.3 hPa WNW 35.2 km/h 35.2 km/h 58 % 0.0 mm 0.0 W/m2 CLR
00:27 7.2 °C -0.5 °C 1028.3 hPa NW 29.6 km/h 29.6 km/h 58 % 0.0 mm 0.0 W/m2 CLR
00:32 7.2 °C -0.3 °C 1028.7 hPa NNW 31.5 km/h 31.5 km/h 59 % 0.0 mm 0.0 W/m2 CLR
00:37 7.2 °C -0.3 °C 1028.7 hPa NNW 24.1 km/h 24.1 km/h 59 % 0.0 mm 0.0 W/m2 CLR
00:42 7.2 °C -0.3 °C 1028.7 hPa NW 29.6 km/h 29.6 km/h 59 % 0.0 mm 0.0 W/m2 CLR
00:47 7.2 °C -0.1 °C 1028.7 hPa NW 31.5 km/h 31.5 km/h 60 % 0.0 mm 0.0 W/m2 CLR
00:52 7.2 °C -0.1 °C 1028.7 hPa NNW 16.7 km/h 16.7 km/h 60 % 0.0 mm 0.0 W/m2 CLR
00:57 7.2 °C 0.2 °C 1028.7 hPa NW 20.4 km/h 20.4 km/h 61 % 0.0 mm 0.0 W/m2 CLR
01:02 7.2 °C 0.2 °C 1029.0 hPa NNW 22.5 km/h 22.5 km/h 61 % 0.0 mm 0.0 W/m2 CLR
01:07 6.7 °C -0.3 °C 1029.0 hPa NW 17.7 km/h 17.7 km/h 61 % 0.0 mm 0.0 W/m2 CLR
01:12 6.7 °C -0.1 °C 1029.0 hPa WNW 16.7 km/h 16.7 km/h 62 % 0.0 mm 0.0 W/m2 CLR
01:17 6.7 °C -0.1 °C 1029.0 hPa NW 29.6 km/h 29.6 km/h 62 % 0.0 mm 0.0 W/m2 CLR
01:22 7.2 °C 0.4 °C 1029.0 hPa WNW 24.1 km/h 24.1 km/h 62 % 0.0 mm 0.0 W/m2 CLR
01:27 6.7 °C -0.1 °C 1029.0 hPa WNW 22.2 km/h 22.2 km/h 62 % 0.0 mm 0.0 W/m2 CLR
01:32 6.7 °C -0.1 °C 1029.0 hPa NW 31.5 km/h 31.5 km/h 62 % 0.0 mm 0.0 W/m2 CLR
01:37 6.7 °C 0.1 °C 1029.0 hPa NW 22.2 km/h 22.2 km/h 63 % 0.0 mm 0.0 W/m2 CLR
01:42 6.7 °C 0.1 °C 1029.0 hPa WNW 31.5 km/h 31.5 km/h 63 % 0.0 mm 0.0 W/m2 CLR
01:47 6.7 °C 0.1 °C 1029.0 hPa NW 25.9 km/h 25.9 km/h 63 % 0.0 mm 0.0 W/m2 CLR
01:52 6.7 °C 0.3 °C 1029.0 hPa NW 24.1 km/h 24.1 km/h 64 % 0.0 mm 0.0 W/m2 CLR
02:02 6.7 °C 0.3 °C 1029.0 hPa WNW 24.1 km/h 24.1 km/h 64 % 0.0 mm 0.0 W/m2 CLR
02:07 6.7 °C 0.3 °C 1029.3 hPa WNW 18.5 km/h 18.5 km/h 64 % 0.0 mm 0.0 W/m2 CLR
02:12 6.7 °C 0.6 °C 1029.3 hPa WNW 22.2 km/h 22.2 km/h 65 % 0.0 mm 0.0 W/m2 CLR
02:17 6.7 °C 0.6 °C 1029.3 hPa NW 22.2 km/h 22.2 km/h 65 % 0.0 mm 0.0 W/m2 CLR
02:22 6.7 °C 0.6 °C 1029.3 hPa NW 31.5 km/h 31.5 km/h 65 % 0.0 mm 0.0 W/m2 CLR
02:27 6.7 °C 0.6 °C 1029.3 hPa NW 24.1 km/h 24.1 km/h 65 % 0.0 mm 0.0 W/m2 CLR
02:32 6.7 °C 0.6 °C 1029.3 hPa WNW 20.4 km/h 20.4 km/h 65 % 0.0 mm 0.0 W/m2 CLR
02:37 6.7 °C 0.6 °C 1029.3 hPa WNW 18.5 km/h 18.5 km/h 65 % 0.0 mm 0.0 W/m2 CLR
02:42 6.7 °C 0.8 °C 1029.3 hPa NW 27.8 km/h 27.8 km/h 66 % 0.0 mm 0.0 W/m2 CLR
02:48 6.7 °C 0.8 °C 1029.7 hPa WNW 24.1 km/h 24.1 km/h 66 % 0.0 mm 0.0 W/m2 CLR
02:53 6.7 °C 0.8 °C 1029.3 hPa NW 22.5 km/h 22.5 km/h 66 % 0.0 mm 0.0 W/m2 CLR
02:58 6.7 °C 0.8 °C 1029.3 hPa WNW 27.8 km/h 27.8 km/h 66 % 0.0 mm 0.0 W/m2 CLR
03:03 6.7 °C 0.8 °C 1029.3 hPa WNW 27.8 km/h 27.8 km/h 66 % 0.0 mm 0.0 W/m2 CLR
03:08 6.1 °C 0.2 °C 1029.7 hPa NW 24.1 km/h 24.1 km/h 66 % 0.0 mm 0.0 W/m2 CLR
03:13 6.1 °C 0.2 °C 1029.3 hPa WNW 18.5 km/h 21.2 km/h 66 % 0.0 mm 0.0 W/m2 CLR
03:18 6.1 °C 0.4 °C 1029.3 hPa NW 35.2 km/h 35.2 km/h 67 % 0.0 mm 0.0 W/m2 CLR
03:23 6.7 °C 0.8 °C 1029.3 hPa NW 32.2 km/h 32.2 km/h 66 % 0.0 mm 0.0 W/m2 CLR
03:28 6.7 °C 0.8 °C 1029.3 hPa NW 27.8 km/h 27.8 km/h 66 % 0.0 mm 0.0 W/m2 CLR
03:33 6.7 °C 0.9 °C 1029.3 hPa NW 33.8 km/h 33.8 km/h 67 % 0.0 mm 0.0 W/m2 CLR
03:38 6.7 °C 0.8 °C 1029.3 hPa NW 29.6 km/h 29.6 km/h 66 % 0.0 mm 0.0 W/m2 CLR
03:43 6.7 °C 0.8 °C 1029.3 hPa NW 33.3 km/h 33.3 km/h 66 % 0.0 mm 0.0 W/m2 CLR
03:48 6.7 °C 0.8 °C 1029.3 hPa NW 33.3 km/h 33.3 km/h 66 % 0.0 mm 0.0 W/m2 CLR
03:53 6.7 °C 0.8 °C 1029.3 hPa NW 31.5 km/h 31.5 km/h 66 % 0.0 mm 0.0 W/m2 CLR
03:58 6.7 °C 0.8 °C 1029.3 hPa NW 31.5 km/h 31.5 km/h 66 % 0.0 mm 0.0 W/m2 CLR
04:03 6.7 °C 0.9 °C 1029.3 hPa NW 31.5 km/h 31.5 km/h 67 % 0.0 mm 0.0 W/m2 CLR
04:08 6.7 °C 0.8 °C 1029.3 hPa WNW 33.3 km/h 33.3 km/h 66 % 0.0 mm 0.0 W/m2 CLR
04:13 6.7 °C 0.8 °C 1029.3 hPa NW 31.5 km/h 31.5 km/h 66 % 0.0 mm 0.0 W/m2 CLR
04:18 6.7 °C 0.8 °C 1029.3 hPa WNW 31.5 km/h 31.5 km/h 66 % 0.0 mm 0.0 W/m2 CLR
04:23 6.7 °C 0.8 °C 1029.3 hPa West 31.5 km/h 31.5 km/h 66 % 0.0 mm 0.0 W/m2 CLR
04:28 6.7 °C 0.8 °C 1029.3 hPa WNW 24.1 km/h 24.1 km/h 66 % 0.0 mm 0.0 W/m2 CLR
04:33 6.1 °C 0.2 °C 1029.3 hPa WNW 18.5 km/h 18.5 km/h 66 % 0.0 mm 0.0 W/m2 CLR
04:38 6.1 °C 0.2 °C 1029.3 hPa NW 20.9 km/h 20.9 km/h 66 % 0.0 mm 0.0 W/m2 CLR
04:43 6.1 °C 0.4 °C 1029.3 hPa NW 25.9 km/h 25.9 km/h 67 % 0.0 mm 0.0 W/m2 CLR
04:48 6.1 °C 0.4 °C 1029.3 hPa NW 25.7 km/h 25.7 km/h 67 % 0.0 mm 0.0 W/m2 CLR
04:53 6.1 °C 0.4 °C 1029.3 hPa NW 31.5 km/h 31.5 km/h 67 % 0.0 mm 0.0 W/m2 CLR
04:58 6.1 °C 0.4 °C 1029.3 hPa NW 27.8 km/h 27.8 km/h 67 % 0.0 mm 0.0 W/m2 CLR
05:03 6.1 °C 0.4 °C 1029.3 hPa WNW 31.5 km/h 31.5 km/h 67 % 0.0 mm 0.0 W/m2 CLR
05:08 6.1 °C 0.4 °C 1029.7 hPa NW 31.5 km/h 31.5 km/h 67 % 0.0 mm 0.0 W/m2 CLR
05:13 6.7 °C 0.9 °C 1029.7 hPa WNW 24.1 km/h 24.1 km/h 67 % 0.0 mm 0.0 W/m2 CLR
05:18 6.1 °C 0.4 °C 1029.7 hPa NW 29.6 km/h 29.6 km/h 67 % 0.0 mm 0.0 W/m2 CLR
05:28 6.7 °C 0.9 °C 1029.3 hPa NNW 31.5 km/h 31.5 km/h 67 % 0.0 mm 0.0 W/m2 CLR
05:33 6.1 °C 0.4 °C 1029.3 hPa NW 16.7 km/h 16.7 km/h 67 % 0.0 mm 0.0 W/m2 CLR
05:38 6.1 °C 0.4 °C 1029.7 hPa NW 27.8 km/h 27.8 km/h 67 % 0.0 mm 0.0 W/m2 CLR
05:43 6.1 °C 0.4 °C 1029.7 hPa NW 35.4 km/h 35.4 km/h 67 % 0.0 mm 0.0 W/m2 CLR
05:44 6.1 °C 0.7 °C 1029.7 hPa NW 38.9 km/h 38.9 km/h 68 % 0.0 mm 0.0 W/m2 CLR
05:49 6.1 °C 0.7 °C 1029.7 hPa WNW 22.2 km/h 22.2 km/h 68 % 0.0 mm 0.0 W/m2 CLR
05:54 6.1 °C 0.7 °C 1029.7 hPa NW 16.7 km/h 16.7 km/h 68 % 0.0 mm 0.0 W/m2 CLR
05:59 6.1 °C 0.7 °C 1030.0 hPa NNW 31.5 km/h 31.5 km/h 68 % 0.0 mm 0.0 W/m2 CLR
06:04 6.1 °C 0.7 °C 1030.0 hPa NW 30.6 km/h 30.6 km/h 68 % 0.0 mm 0.0 W/m2 CLR
06:09 6.1 °C 0.7 °C 1029.7 hPa NW 35.2 km/h 35.2 km/h 68 % 0.0 mm 0.0 W/m2 CLR
06:14 6.1 °C 0.7 °C 1030.0 hPa NW 25.9 km/h 25.9 km/h 68 % 0.0 mm 0.0 W/m2 CLR
06:19 6.1 °C 0.7 °C 1030.0 hPa NW 24.1 km/h 24.1 km/h 68 % 0.0 mm 0.0 W/m2 CLR
06:24 6.1 °C 0.8 °C 1030.0 hPa NW 20.4 km/h 20.4 km/h 69 % 0.0 mm 0.0 W/m2 CLR
06:29 6.1 °C 0.8 °C 1030.0 hPa NW 35.2 km/h 35.2 km/h 69 % 0.0 mm 0.0 W/m2 CLR
06:34 6.1 °C 0.8 °C 1030.0 hPa NW 27.8 km/h 27.8 km/h 69 % 0.0 mm 0.0 W/m2 CLR
06:39 6.1 °C 0.8 °C 1030.0 hPa WNW 38.9 km/h 38.9 km/h 69 % 0.0 mm 0.0 W/m2 CLR
06:44 6.1 °C 0.8 °C 1030.0 hPa NW 25.9 km/h 25.9 km/h 69 % 0.0 mm 0.0 W/m2 CLR
06:49 6.1 °C 0.8 °C 1029.7 hPa WNW 38.6 km/h 38.6 km/h 69 % 0.0 mm 0.0 W/m2 CLR
06:54 6.1 °C 0.8 °C 1030.0 hPa NW 35.2 km/h 35.2 km/h 69 % 0.0 mm 0.0 W/m2 CLR
06:59 6.1 °C 0.8 °C 1030.0 hPa NW 24.1 km/h 24.1 km/h 69 % 0.0 mm 0.0 W/m2 CLR
07:04 6.1 °C 0.8 °C 1030.0 hPa WNW 27.8 km/h 27.8 km/h 69 % 0.0 mm 0.0 W/m2 CLR
07:09 6.1 °C 0.8 °C 1030.0 hPa NW 20.4 km/h 20.4 km/h 69 % 0.0 mm 0.0 W/m2 CLR
07:14 6.1 °C 0.8 °C 1030.0 hPa West 16.7 km/h 16.7 km/h 69 % 0.0 mm 0.0 W/m2 CLR
07:19 6.1 °C 0.8 °C 1030.4 hPa NW 29.6 km/h 29.6 km/h 69 % 0.0 mm 0.0 W/m2 CLR
07:24 6.1 °C 1.1 °C 1030.4 hPa NW 33.3 km/h 33.3 km/h 70 % 0.0 mm 0.0 W/m2 CLR
07:29 6.1 °C 1.1 °C 1030.4 hPa NW 33.8 km/h 33.8 km/h 70 % 0.0 mm 0.0 W/m2 CLR
07:34 6.1 °C 1.1 °C 1030.4 hPa NW 25.7 km/h 25.7 km/h 70 % 0.0 mm 0.0 W/m2 CLR
07:39 6.1 °C 1.1 °C 1030.4 hPa NW 25.9 km/h 25.9 km/h 70 % 0.0 mm 0.0 W/m2 CLR
07:44 6.1 °C 1.1 °C 1030.7 hPa NW 29.0 km/h 29.0 km/h 70 % 0.0 mm 0.0 W/m2 CLR
07:49 5.6 °C 0.5 °C 1030.7 hPa NNW 25.9 km/h 25.9 km/h 70 % 0.0 mm 0.0 W/m2 OVC
07:54 6.1 °C 1.1 °C 1030.7 hPa NW 20.4 km/h 20.4 km/h 70 % 0.0 mm 0.0 W/m2 OVC
07:59 6.1 °C 1.1 °C 1030.7 hPa NW 25.9 km/h 25.9 km/h 70 % 0.0 mm 5.0 W/m2 OVC
08:04 6.1 °C 1.1 °C 1031.0 hPa NW 29.6 km/h 29.6 km/h 70 % 0.0 mm 7.0 W/m2 OVC
08:09 5.6 °C 0.7 °C 1031.0 hPa NW 24.1 km/h 24.1 km/h 71 % 0.0 mm 9.0 W/m2 BKN
08:14 5.6 °C 0.5 °C 1031.0 hPa WNW 22.2 km/h 22.2 km/h 70 % 0.0 mm 11.0 W/m2 BKN
08:19 5.6 °C 0.7 °C 1031.4 hPa NW 20.9 km/h 20.9 km/h 71 % 0.0 mm 12.0 W/m2 BKN
08:24 5.6 °C 0.7 °C 1031.4 hPa NNW 24.1 km/h 24.1 km/h 71 % 0.0 mm 16.0 W/m2 BKN
08:29 5.6 °C 0.7 °C 1031.4 hPa NNW 24.1 km/h 24.1 km/h 71 % 0.0 mm 19.0 W/m2 BKN
08:34 6.1 °C 1.1 °C 1031.4 hPa NNW 27.8 km/h 27.8 km/h 70 % 0.0 mm 26.0 W/m2 BKN
08:39 6.1 °C 1.1 °C 1031.7 hPa NW 20.9 km/h 20.9 km/h 70 % 0.0 mm 39.0 W/m2 BKN
08:44 6.1 °C 1.1 °C 1031.7 hPa WNW 20.4 km/h 20.4 km/h 70 % 0.0 mm 47.0 W/m2 SCT
08:49 6.1 °C 1.1 °C 1032.1 hPa WNW 20.4 km/h 20.4 km/h 70 % 0.0 mm 56.0 W/m2 SCT
08:54 6.1 °C 1.1 °C 1032.1 hPa NW 18.5 km/h 18.5 km/h 70 % 0.0 mm 72.0 W/m2 FEW
08:59 6.1 °C 0.8 °C 1031.7 hPa NNW 24.1 km/h 24.1 km/h 69 % 0.0 mm 84.0 W/m2 FEW
09:04 6.7 °C 1.4 °C 1032.1 hPa WNW 29.0 km/h 29.0 km/h 69 % 0.0 mm 90.0 W/m2 FEW
09:09 6.7 °C 1.4 °C 1032.1 hPa NNW 27.8 km/h 27.8 km/h 69 % 0.0 mm 113.0 W/m2 CLR
09:14 6.7 °C 1.2 °C 1032.1 hPa NW 22.2 km/h 22.2 km/h 68 % 0.0 mm 125.0 W/m2 CLR
09:19 6.7 °C 1.2 °C 1032.4 hPa NW 20.4 km/h 20.4 km/h 68 % 0.0 mm 128.0 W/m2 CLR
09:24 6.7 °C 0.9 °C 1032.1 hPa NNW 30.6 km/h 30.6 km/h 67 % 0.0 mm 148.0 W/m2 CLR
09:29 7.2 °C 1.5 °C 1032.4 hPa NW 27.8 km/h 27.8 km/h 67 % 0.0 mm 153.0 W/m2 CLR
09:34 7.2 °C 1.3 °C 1032.4 hPa NW 25.9 km/h 25.9 km/h 66 % 0.0 mm 141.0 W/m2 CLR
09:39 7.2 °C 1.3 °C 1032.4 hPa NNW 27.8 km/h 27.8 km/h 66 % 0.0 mm 141.0 W/m2 CLR
09:44 7.8 °C 1.6 °C 1032.7 hPa NW 31.5 km/h 31.5 km/h 65 % 0.0 mm 151.0 W/m2 CLR
09:49 7.8 °C 1.6 °C 1032.7 hPa NNW 37.0 km/h 37.0 km/h 65 % 0.0 mm 199.0 W/m2 CLR
09:54 7.8 °C 1.6 °C 1032.7 hPa NNW 33.3 km/h 33.3 km/h 65 % 0.0 mm 221.0 W/m2 CLR
09:59 8.3 °C 2.1 °C 1032.7 hPa North 33.3 km/h 33.3 km/h 65 % 0.0 mm 251.0 W/m2 CLR
10:04 8.3 °C 1.9 °C 1032.7 hPa NNW 31.5 km/h 31.5 km/h 64 % 0.0 mm 265.0 W/m2 CLR
10:09 8.3 °C 1.9 °C 1032.4 hPa NW 20.4 km/h 20.4 km/h 64 % 0.0 mm 276.0 W/m2 CLR
10:14 8.3 °C 1.7 °C 1032.7 hPa NNW 40.7 km/h 40.7 km/h 63 % 0.0 mm 288.0 W/m2 CLR
10:19 8.3 °C 1.7 °C 1032.7 hPa NNW 38.6 km/h 38.6 km/h 63 % 0.0 mm 297.0 W/m2 CLR
10:24 8.3 °C 1.7 °C 1032.7 hPa NNW 31.5 km/h 31.5 km/h 63 % 0.0 mm 308.0 W/m2 CLR
10:25 8.3 °C 1.7 °C 1032.7 hPa NNW 31.5 km/h 31.5 km/h 63 % 0.0 mm 308.0 W/m2 CLR
10:30 8.9 °C 2.2 °C 1032.7 hPa North 35.2 km/h 35.2 km/h 63 % 0.0 mm 318.0 W/m2 CLR
10:35 8.9 °C 2.2 °C 1032.7 hPa NNW 31.5 km/h 31.5 km/h 63 % 0.0 mm 329.0 W/m2 CLR
10:40 8.9 °C 2.0 °C 1032.7 hPa NW 20.4 km/h 20.4 km/h 62 % 0.0 mm 338.0 W/m2 CLR
10:45 8.9 °C 1.8 °C 1032.7 hPa NNW 31.5 km/h 31.5 km/h 61 % 0.0 mm 350.0 W/m2 CLR
10:50 9.4 °C 2.3 °C 1032.7 hPa North 24.1 km/h 24.1 km/h 61 % 0.0 mm 362.0 W/m2 CLR
10:55 9.4 °C 2.1 °C 1032.7 hPa NW 29.6 km/h 29.6 km/h 60 % 0.0 mm 369.0 W/m2 CLR
11:00 9.4 °C 2.1 °C 1032.7 hPa NNW 25.9 km/h 25.9 km/h 60 % 0.0 mm 378.0 W/m2 CLR
11:05 10.0 °C 2.3 °C 1033.1 hPa North 29.6 km/h 29.6 km/h 59 % 0.0 mm 401.0 W/m2 CLR
11:10 10.0 °C 2.6 °C 1033.1 hPa WNW 31.5 km/h 31.5 km/h 60 % 0.0 mm 397.0 W/m2 CLR
11:15 10.0 °C 2.6 °C 1033.1 hPa North 27.8 km/h 27.8 km/h 60 % 0.0 mm 406.0 W/m2 CLR
11:20 10.0 °C 2.6 °C 1033.1 hPa NNW 22.5 km/h 22.5 km/h 60 % 0.0 mm 429.0 W/m2 CLR
11:25 10.0 °C 2.3 °C 1033.4 hPa North 35.2 km/h 35.2 km/h 59 % 0.0 mm 432.0 W/m2 CLR
11:30 10.6 °C 2.6 °C 1033.4 hPa NNW 41.8 km/h 41.8 km/h 58 % 0.0 mm 469.0 W/m2 CLR
11:35 10.0 °C 2.1 °C 1033.4 hPa North 37.0 km/h 37.0 km/h 58 % 0.0 mm 489.0 W/m2 CLR
11:40 10.6 °C 2.6 °C 1033.4 hPa North 33.3 km/h 33.3 km/h 58 % 0.0 mm 130.0 W/m2 CLR
11:45 10.6 °C 2.6 °C 1033.1 hPa North 33.3 km/h 33.3 km/h 58 % 0.0 mm 508.0 W/m2 CLR
11:50 10.6 °C 2.4 °C 1033.1 hPa NNW 30.6 km/h 30.6 km/h 57 % 0.0 mm 497.0 W/m2 CLR
11:55 11.1 °C 2.4 °C 1033.1 hPa North 37.0 km/h 37.0 km/h 55 % 0.0 mm 394.0 W/m2 CLR
12:00 11.1 °C 2.7 °C 1033.1 hPa NNE 27.8 km/h 27.8 km/h 56 % 0.0 mm 555.0 W/m2 CLR
12:05 10.6 °C 1.9 °C 1033.1 hPa North 27.4 km/h 27.4 km/h 55 % 0.0 mm 536.0 W/m2 CLR
12:10 10.6 °C 1.9 °C 1033.1 hPa North 27.8 km/h 27.8 km/h 55 % 0.0 mm 123.0 W/m2 CLR
12:15 10.0 °C 1.4 °C 1033.1 hPa North 35.2 km/h 35.2 km/h 55 % 0.0 mm 123.0 W/m2 CLR
12:20 10.6 °C 1.9 °C 1033.1 hPa North 35.2 km/h 35.2 km/h 55 % 0.0 mm 111.0 W/m2 CLR
12:25 10.6 °C 1.9 °C 1033.1 hPa NNW 31.5 km/h 31.5 km/h 55 % 0.0 mm 102.0 W/m2 CLR
12:30 10.0 °C 1.6 °C 1033.1 hPa NNW 29.0 km/h 29.0 km/h 56 % 0.0 mm 84.0 W/m2 CLR
12:35 10.0 °C 1.4 °C 1033.1 hPa NNW 31.5 km/h 31.5 km/h 55 % 0.0 mm 81.0 W/m2 CLR
12:40 10.0 °C 1.4 °C 1032.7 hPa NNW 25.9 km/h 25.9 km/h 55 % 0.0 mm 84.0 W/m2 CLR
12:45 10.0 °C 1.1 °C 1032.7 hPa North 27.8 km/h 27.8 km/h 54 % 0.0 mm 70.0 W/m2 FEW
12:50 10.6 °C 1.6 °C 1032.7 hPa NW 24.1 km/h 24.1 km/h 54 % 0.0 mm 504.0 W/m2 CLR
12:55 11.7 °C 2.1 °C 1032.7 hPa NNW 25.7 km/h 25.7 km/h 52 % 0.0 mm 522.0 W/m2 CLR
13:00 11.7 °C 1.8 °C 1032.7 hPa NNW 24.1 km/h 24.1 km/h 51 % 0.0 mm 510.0 W/m2 CLR
13:05 11.7 °C 1.3 °C 1032.7 hPa NNW 31.5 km/h 31.5 km/h 49 % 0.0 mm 489.0 W/m2 CLR
13:10 12.2 °C 1.8 °C 1032.7 hPa NW 31.5 km/h 31.5 km/h 49 % 0.0 mm 483.0 W/m2 CLR
13:15 11.7 °C 1.6 °C 1032.7 hPa North 37.0 km/h 37.0 km/h 50 % 0.0 mm 475.0 W/m2 CLR
13:20 11.7 °C 1.6 °C 1032.7 hPa North 24.1 km/h 24.1 km/h 50 % 0.0 mm 480.0 W/m2 CLR
13:25 11.7 °C 1.3 °C 1032.7 hPa North 33.3 km/h 33.3 km/h 49 % 0.0 mm 462.0 W/m2 CLR
13:30 11.7 °C 1.0 °C 1032.4 hPa NNW 38.9 km/h 38.9 km/h 48 % 0.0 mm 454.0 W/m2 CLR
13:35 11.7 °C 1.0 °C 1032.4 hPa NNW 27.8 km/h 27.8 km/h 48 % 0.0 mm 454.0 W/m2 CLR
13:40 11.7 °C 1.0 °C 1032.4 hPa North 25.9 km/h 25.9 km/h 48 % 0.0 mm 475.0 W/m2 CLR
13:50 12.2 °C 1.2 °C 1032.1 hPa NW 29.0 km/h 29.0 km/h 47 % 0.0 mm 478.0 W/m2 CLR
13:55 12.2 °C 1.5 °C 1032.1 hPa NNW 27.8 km/h 27.8 km/h 48 % 0.0 mm 520.0 W/m2 CLR
14:00 12.8 °C 1.7 °C 1032.1 hPa NW 33.3 km/h 33.3 km/h 47 % 0.0 mm 466.0 W/m2 CLR
14:05 12.8 °C 1.7 °C 1032.1 hPa NW 29.6 km/h 29.6 km/h 47 % 0.0 mm 455.0 W/m2 CLR
14:10 12.8 °C 2.1 °C 1032.1 hPa NW 18.5 km/h 18.5 km/h 48 % 0.0 mm 450.0 W/m2 CLR
14:15 12.8 °C 1.7 °C 1032.4 hPa NW 35.2 km/h 35.2 km/h 47 % 0.0 mm 417.0 W/m2 CLR
14:20 12.2 °C 1.5 °C 1032.1 hPa North 44.4 km/h 44.4 km/h 48 % 0.0 mm 424.0 W/m2 CLR
14:25 12.2 °C 1.5 °C 1032.4 hPa North 33.3 km/h 33.3 km/h 48 % 0.0 mm 406.0 W/m2 CLR
14:30 12.2 °C 1.2 °C 1032.1 hPa NW 31.5 km/h 31.5 km/h 47 % 0.0 mm 388.0 W/m2 CLR
14:35 12.8 °C 1.7 °C 1032.1 hPa NNW 31.5 km/h 31.5 km/h 47 % 0.0 mm 394.0 W/m2 CLR
14:41 12.8 °C 1.7 °C 1032.1 hPa NNW 30.6 km/h 30.6 km/h 47 % 0.0 mm 383.0 W/m2 CLR
14:46 12.8 °C 1.7 °C 1032.1 hPa NW 27.8 km/h 27.8 km/h 47 % 0.0 mm 380.0 W/m2 CLR
14:51 12.8 °C 1.7 °C 1032.1 hPa North 27.8 km/h 27.8 km/h 47 % 0.0 mm 355.0 W/m2 CLR
14:56 12.2 °C 1.2 °C 1032.1 hPa NW 31.5 km/h 31.5 km/h 47 % 0.0 mm 346.0 W/m2 CLR
15:01 12.2 °C 1.5 °C 1032.1 hPa NW 37.0 km/h 37.0 km/h 48 % 0.0 mm 334.0 W/m2 CLR
15:06 12.2 °C 1.5 °C 1032.1 hPa NW 33.3 km/h 33.3 km/h 48 % 0.0 mm 322.0 W/m2 CLR
15:11 12.2 °C 1.5 °C 1032.1 hPa NNW 27.8 km/h 27.8 km/h 48 % 0.0 mm 311.0 W/m2 CLR
15:16 12.2 °C 1.2 °C 1032.1 hPa NNW 33.3 km/h 33.3 km/h 47 % 0.0 mm 302.0 W/m2 CLR
15:21 12.2 °C 1.2 °C 1031.7 hPa NNW 42.6 km/h 42.6 km/h 47 % 0.0 mm 294.0 W/m2 CLR
15:26 11.7 °C 1.0 °C 1032.1 hPa NW 27.8 km/h 27.8 km/h 48 % 0.0 mm 279.0 W/m2 CLR
15:31 12.2 °C 1.5 °C 1032.1 hPa North 33.3 km/h 33.3 km/h 48 % 0.0 mm 267.0 W/m2 CLR
15:36 11.7 °C 1.3 °C 1032.1 hPa NW 20.4 km/h 20.4 km/h 49 % 0.0 mm 257.0 W/m2 CLR
15:41 12.2 °C 1.8 °C 1032.1 hPa North 31.5 km/h 31.5 km/h 49 % 0.0 mm 250.0 W/m2 CLR
15:46 11.7 °C 1.3 °C 1032.1 hPa NNW 29.6 km/h 29.6 km/h 49 % 0.0 mm 234.0 W/m2 CLR
15:51 11.7 °C 1.0 °C 1032.1 hPa North 37.0 km/h 37.0 km/h 48 % 0.0 mm 216.0 W/m2 CLR
15:56 11.7 °C 1.3 °C 1032.4 hPa North 25.9 km/h 25.9 km/h 49 % 0.0 mm 209.0 W/m2 CLR
16:01 11.1 °C 1.1 °C 1032.4 hPa North 33.3 km/h 33.3 km/h 50 % 0.0 mm 211.0 W/m2 CLR
16:02 11.1 °C 1.1 °C 1032.4 hPa North 33.3 km/h 33.3 km/h 50 % 0.0 mm 207.0 W/m2 CLR
16:07 11.1 °C 1.1 °C 1032.7 hPa North 31.5 km/h 31.5 km/h 50 % 0.0 mm 193.0 W/m2 CLR
16:17 11.1 °C 1.3 °C 1032.4 hPa NNW 35.2 km/h 35.2 km/h 51 % 0.0 mm 144.0 W/m2 CLR
16:22 11.1 °C 1.3 °C 1032.7 hPa NNW 29.6 km/h 29.6 km/h 51 % 0.0 mm 134.0 W/m2 CLR
16:24 11.1 °C 1.3 °C 1032.7 hPa NNW 24.1 km/h 24.1 km/h 51 % 0.0 mm 130.0 W/m2 CLR
16:29 11.1 °C 1.3 °C 1032.7 hPa North 27.8 km/h 27.8 km/h 51 % 0.0 mm 118.0 W/m2 CLR
16:39 10.6 °C 1.1 °C 1032.4 hPa North 40.7 km/h 40.7 km/h 52 % 0.0 mm 83.0 W/m2 FEW
16:44 10.6 °C 1.1 °C 1032.4 hPa North 29.0 km/h 29.0 km/h 52 % 0.0 mm 62.0 W/m2 FEW
16:49 10.6 °C 1.1 °C 1032.4 hPa NNW 37.0 km/h 37.0 km/h 52 % 0.0 mm 56.0 W/m2 SCT
16:54 10.6 °C 1.4 °C 1032.7 hPa NW 27.8 km/h 27.8 km/h 53 % 0.0 mm 42.0 W/m2 BKN
16:59 10.0 °C 0.8 °C 1032.7 hPa NNW 24.1 km/h 24.1 km/h 53 % 0.0 mm 35.0 W/m2 BKN
17:04 10.0 °C 0.8 °C 1032.7 hPa NW 20.4 km/h 20.4 km/h 53 % 0.0 mm 23.0 W/m2 BKN
17:09 10.0 °C 1.1 °C 1032.7 hPa NNW 25.9 km/h 25.9 km/h 54 % 0.0 mm 16.0 W/m2 BKN
17:14 9.4 °C 0.8 °C 1032.7 hPa NNW 27.8 km/h 27.8 km/h 55 % 0.0 mm 12.0 W/m2 BKN
17:19 9.4 °C 1.1 °C 1032.7 hPa NNW 24.1 km/h 24.1 km/h 56 % 0.0 mm 11.0 W/m2 BKN
17:24 9.4 °C 1.1 °C 1032.7 hPa NNW 18.5 km/h 19.6 km/h 56 % 0.0 mm 9.0 W/m2 BKN
17:29 9.4 °C 1.3 °C 1032.7 hPa NNW 29.6 km/h 29.6 km/h 57 % 0.0 mm 7.0 W/m2 BKN
17:34 9.4 °C 1.3 °C 1032.7 hPa NNW 14.8 km/h 14.8 km/h 57 % 0.0 mm 5.0 W/m2 OVC
17:45 8.9 °C 1.1 °C 1032.7 hPa NNW 16.7 km/h 16.7 km/h 58 % 0.0 mm 0.0 W/m2 CLR
17:50 8.9 °C 1.1 °C 1032.7 hPa NW 18.5 km/h 18.5 km/h 58 % 0.0 mm 0.0 W/m2 CLR
17:55 8.9 °C 1.3 °C 1032.4 hPa NNW 18.5 km/h 18.5 km/h 59 % 0.0 mm 0.0 W/m2 CLR
18:00 8.9 °C 1.6 °C 1032.4 hPa NNW 27.8 km/h 27.8 km/h 60 % 0.0 mm 0.0 W/m2 CLR
18:05 8.9 °C 1.6 °C 1032.7 hPa NW 14.8 km/h 14.8 km/h 60 % 0.0 mm 0.0 W/m2 CLR
18:10 8.9 °C 1.6 °C 1032.7 hPa WNW 16.7 km/h 16.7 km/h 60 % 0.0 mm 0.0 W/m2 CLR
18:15 8.3 °C 1.2 °C 1032.7 hPa WNW 11.3 km/h 11.3 km/h 61 % 0.0 mm 0.0 W/m2 CLR
18:20 8.3 °C 1.2 °C 1032.7 hPa NW 16.1 km/h 16.1 km/h 61 % 0.0 mm 0.0 W/m2 CLR
18:25 8.3 °C 1.2 °C 1032.4 hPa NNW 25.7 km/h 25.7 km/h 61 % 0.0 mm 0.0 W/m2 CLR
18:30 7.8 °C 0.7 °C 1032.4 hPa NW 22.2 km/h 22.2 km/h 61 % 0.0 mm 0.0 W/m2 CLR
18:35 7.8 °C 0.7 °C 1032.7 hPa WNW 16.7 km/h 16.7 km/h 61 % 0.0 mm 0.0 W/m2 CLR
18:40 8.3 °C 1.4 °C 1032.7 hPa WNW 14.8 km/h 14.8 km/h 62 % 0.0 mm 0.0 W/m2 CLR
18:45 8.3 °C 1.2 °C 1032.7 hPa NNW 25.7 km/h 25.7 km/h 61 % 0.0 mm 0.0 W/m2 CLR
18:47 7.8 °C 0.7 °C 1032.7 hPa NW 20.4 km/h 20.4 km/h 61 % 0.0 mm 0.0 W/m2 CLR
18:52 7.8 °C 0.7 °C 1032.7 hPa NW 18.5 km/h 18.5 km/h 61 % 0.0 mm 0.0 W/m2 CLR
18:57 7.8 °C 0.9 °C 1032.7 hPa NW 18.5 km/h 18.5 km/h 62 % 0.0 mm 0.0 W/m2 CLR
19:01 7.8 °C 1.2 °C 1032.7 hPa NW 13.0 km/h 13.0 km/h 63 % 0.0 mm 0.0 W/m2 CLR
19:06 7.8 °C 1.2 °C 1033.1 hPa WNW 14.8 km/h 14.8 km/h 63 % 0.0 mm 0.0 W/m2 CLR
19:11 7.8 °C 1.2 °C 1033.1 hPa WNW 13.0 km/h 13.0 km/h 63 % 0.0 mm 0.0 W/m2 CLR
19:17 7.2 °C 0.7 °C 1032.7 hPa WNW 6.4 km/h 6.4 km/h 63 % 0.0 mm 0.0 W/m2 CLR
19:22 6.7 °C 0.1 °C 1033.1 hPa WNW 11.3 km/h 11.3 km/h 63 % 0.0 mm 0.0 W/m2 CLR
19:27 6.7 °C 0.3 °C 1033.1 hPa WNW 18.5 km/h 18.5 km/h 64 % 0.0 mm 0.0 W/m2 CLR
19:32 6.7 °C 0.6 °C 1033.1 hPa NW 16.7 km/h 16.7 km/h 65 % 0.0 mm 0.0 W/m2 CLR
19:37 6.7 °C 0.3 °C 1033.1 hPa NW 20.4 km/h 20.4 km/h 64 % 0.0 mm 0.0 W/m2 CLR
19:42 6.7 °C 0.3 °C 1033.1 hPa WNW 14.8 km/h 14.8 km/h 64 % 0.0 mm 0.0 W/m2 CLR
19:47 7.2 °C 0.7 °C 1033.1 hPa WSW 7.4 km/h 7.4 km/h 63 % 0.0 mm 0.0 W/m2 CLR
19:52 7.2 °C 1.1 °C 1033.1 hPa WSW 7.4 km/h 7.4 km/h 65 % 0.0 mm 0.0 W/m2 CLR
19:57 7.2 °C 1.1 °C 1033.1 hPa West 13.0 km/h 13.0 km/h 65 % 0.0 mm 0.0 W/m2 CLR
20:02 7.2 °C 1.3 °C 1033.1 hPa West 11.1 km/h 11.1 km/h 66 % 0.0 mm 0.0 W/m2 CLR
20:07 7.2 °C 1.5 °C 1033.1 hPa WSW 11.3 km/h 11.3 km/h 67 % 0.0 mm 0.0 W/m2 CLR
20:12 7.2 °C 1.5 °C 1033.1 hPa West 11.1 km/h 11.1 km/h 67 % 0.0 mm 0.0 W/m2 CLR
20:17 6.7 °C 1.2 °C 1033.1 hPa West 11.1 km/h 11.1 km/h 68 % 0.0 mm 0.0 W/m2 CLR
20:22 6.1 °C 0.7 °C 1033.1 hPa West 11.1 km/h 11.1 km/h 68 % 0.0 mm 0.0 W/m2 CLR
20:27 6.1 °C 0.7 °C 1033.1 hPa West 13.0 km/h 13.0 km/h 68 % 0.0 mm 0.0 W/m2 CLR
20:32 6.1 °C 0.8 °C 1033.1 hPa WSW 13.0 km/h 13.0 km/h 69 % 0.0 mm 0.0 W/m2 CLR
20:37 5.6 °C 0.3 °C 1033.1 hPa WNW 11.1 km/h 11.1 km/h 69 % 0.0 mm 0.0 W/m2 CLR
20:42 5.0 °C -0.2 °C 1032.7 hPa NW 13.0 km/h 13.0 km/h 69 % 0.0 mm 0.0 W/m2 CLR
20:47 4.4 °C -0.8 °C 1032.7 hPa WNW 14.8 km/h 14.8 km/h 69 % 0.0 mm 0.0 W/m2 CLR
20:57 4.4 °C -0.8 °C 1033.1 hPa NW 16.7 km/h 16.7 km/h 69 % 0.0 mm 0.0 W/m2 CLR
21:02 4.4 °C -0.9 °C 1033.1 hPa WNW 20.4 km/h 20.4 km/h 68 % 0.0 mm 0.0 W/m2 CLR
21:07 3.9 °C -1.7 °C 1033.1 hPa West 18.5 km/h 18.5 km/h 67 % 0.0 mm 0.0 W/m2 CLR
21:12 3.3 °C -2.2 °C 1033.1 hPa WSW 7.4 km/h 7.4 km/h 67 % 0.0 mm 0.0 W/m2 CLR
21:17 3.9 °C -1.3 °C 1033.4 hPa WSW 7.4 km/h 7.4 km/h 69 % 0.0 mm 0.0 W/m2 CLR
21:22 3.9 °C -1.1 °C 1033.4 hPa West 7.4 km/h 7.4 km/h 70 % 0.0 mm 0.0 W/m2 CLR
21:27 3.9 °C -1.1 °C 1033.4 hPa WNW 9.3 km/h 9.3 km/h 70 % 0.0 mm 0.0 W/m2 CLR
21:32 3.3 °C -1.4 °C 1033.4 hPa West 11.1 km/h 11.1 km/h 71 % 0.0 mm 0.0 W/m2 CLR
21:37 3.3 °C -1.4 °C 1033.4 hPa West 9.3 km/h 9.3 km/h 71 % 0.0 mm 0.0 W/m2 CLR
21:38 3.3 °C -1.4 °C 1033.4 hPa West 11.1 km/h 11.1 km/h 71 % 0.0 mm 0.0 W/m2 CLR
21:43 3.3 °C -1.4 °C 1033.4 hPa WSW 11.3 km/h 11.3 km/h 71 % 0.0 mm 0.0 W/m2 CLR
21:48 3.3 °C -1.4 °C 1033.4 hPa WSW 13.0 km/h 13.0 km/h 71 % 0.0 mm 0.0 W/m2 CLR
21:53 4.4 °C -0.2 °C 1033.4 hPa West 16.7 km/h 16.7 km/h 72 % 0.0 mm 0.0 W/m2 CLR
21:54 5.0 °C 0.2 °C 1033.4 hPa WSW 13.0 km/h 13.0 km/h 71 % 0.0 mm 0.0 W/m2 CLR
21:59 5.0 °C 0.2 °C 1033.7 hPa West 13.0 km/h 13.0 km/h 71 % 0.0 mm 0.0 W/m2 CLR
22:04 5.0 °C 0.2 °C 1033.7 hPa WSW 13.0 km/h 13.0 km/h 71 % 0.0 mm 0.0 W/m2 CLR
22:09 5.6 °C 0.7 °C 1033.7 hPa West 16.7 km/h 16.7 km/h 71 % 0.0 mm 0.0 W/m2 CLR
22:14 5.0 °C 0.2 °C 1033.7 hPa West 20.4 km/h 20.4 km/h 71 % 0.0 mm 0.0 W/m2 CLR
22:19 4.4 °C -0.3 °C 1033.7 hPa West 14.8 km/h 14.8 km/h 71 % 0.0 mm 0.0 W/m2 CLR
22:24 4.4 °C -0.3 °C 1033.7 hPa West 14.8 km/h 14.8 km/h 71 % 0.0 mm 0.0 W/m2 CLR
22:34 3.9 °C -0.9 °C 1033.7 hPa WNW 13.0 km/h 13.0 km/h 71 % 0.0 mm 0.0 W/m2 CLR
22:39 3.9 °C -0.9 °C 1033.7 hPa West 14.8 km/h 14.8 km/h 71 % 0.0 mm 0.0 W/m2 CLR
22:44 3.3 °C -1.4 °C 1034.1 hPa West 11.1 km/h 11.1 km/h 71 % 0.0 mm 0.0 W/m2 CLR
22:49 3.3 °C -1.4 °C 1034.1 hPa West 13.0 km/h 13.0 km/h 71 % 0.0 mm 0.0 W/m2 CLR
22:54 2.8 °C -1.8 °C 1033.7 hPa West 18.5 km/h 18.5 km/h 72 % 0.0 mm 0.0 W/m2 CLR
22:59 3.3 °C -1.2 °C 1034.1 hPa West 16.7 km/h 16.7 km/h 72 % 0.0 mm 0.0 W/m2 CLR
23:04 4.4 °C -0.2 °C 1034.1 hPa West 16.7 km/h 16.7 km/h 72 % 0.0 mm 0.0 W/m2 CLR
23:09 3.9 °C -0.9 °C 1034.1 hPa West 16.7 km/h 16.7 km/h 71 % 0.0 mm 0.0 W/m2 CLR
23:15 3.9 °C -0.9 °C 1034.1 hPa West 9.3 km/h 9.3 km/h 71 % 0.0 mm 0.0 W/m2 CLR
23:20 3.3 °C -1.2 °C 1034.1 hPa West 13.0 km/h 13.0 km/h 72 % 0.0 mm 0.0 W/m2 CLR
23:30 2.2 °C -2.1 °C 1034.1 hPa West 13.0 km/h 13.0 km/h 73 % 0.0 mm 0.0 W/m2 CLR
23:35 1.7 °C -2.7 °C 1034.1 hPa West 11.1 km/h 11.1 km/h 73 % 0.0 mm 0.0 W/m2 CLR
23:40 1.7 °C -2.7 °C 1034.1 hPa West 11.3 km/h 11.3 km/h 73 % 0.0 mm 0.0 W/m2 CLR
23:45 1.1 °C -3.2 °C 1034.1 hPa WSW 9.3 km/h 9.3 km/h 73 % 0.0 mm 0.0 W/m2 CLR
23:50 1.1 °C -3.2 °C 1034.1 hPa West 7.4 km/h 7.4 km/h 73 % 0.0 mm 0.0 W/m2 CLR
23:55 1.1 °C -3.0 °C 1034.1 hPa WSW 5.6 km/h 5.6 km/h 74 % 0.0 mm 0.0 W/m2 CLR
Lo Temps de Massalio
Compliments of Weather Underground - 1.25 mb